createdAt,value
2023-04-28T00:01:15.354Z,29.40
2023-04-28T00:03:43.702Z,26.60
2023-04-28T00:06:12.307Z,23.50
2023-04-28T00:08:41.481Z,26.60
2023-04-28T00:11:11.122Z,35.20
2023-04-28T00:13:39.573Z,31.00
2023-04-28T00:16:07.996Z,23.60
2023-04-28T00:18:36.142Z,21.40
2023-04-28T00:21:05.044Z,16.70
2023-04-28T00:23:33.202Z,19.60
2023-04-28T00:26:01.582Z,14.80
2023-04-28T00:28:34.492Z,19.30
2023-04-28T00:31:10.741Z,19.70
2023-04-28T00:33:40.026Z,17.30
2023-04-28T00:36:08.811Z,16.80
2023-04-28T00:38:38.631Z,12.20
2023-04-28T00:41:06.996Z,14.20
2023-04-28T00:43:47.872Z,14.80
2023-04-28T00:46:25.567Z,15.80
2023-04-28T00:48:53.740Z,17.00
2023-04-28T00:51:21.922Z,16.30
2023-04-28T00:53:51.711Z,17.50
2023-04-28T00:56:19.992Z,19.10
2023-04-28T00:58:48.266Z,15.80
2023-04-28T01:01:18.255Z,15.40
2023-04-28T01:03:46.885Z,17.70
2023-04-28T01:06:16.879Z,16.00
2023-04-28T01:08:49.148Z,29.80
2023-04-28T01:11:17.874Z,29.10
2023-04-28T01:13:59.731Z,18.30
2023-04-28T01:18:58.527Z,30.50
2023-04-28T01:21:30.465Z,35.90
2023-04-28T01:23:59.893Z,39.00
2023-04-28T01:26:28.069Z,44.80
2023-04-28T01:28:56.252Z,42.00
2023-04-28T01:31:25.703Z,27.60
2023-04-28T01:33:53.911Z,19.40
2023-04-28T01:36:23.926Z,19.00
2023-04-28T01:38:53.234Z,16.70
2023-04-28T01:41:21.394Z,23.00
2023-04-28T01:43:49.810Z,21.60
2023-04-28T01:46:17.981Z,20.30
2023-04-28T01:48:46.228Z,20.00
2023-04-28T01:51:14.391Z,22.00
2023-04-28T01:53:43.073Z,21.80
2023-04-28T01:56:11.352Z,19.70
2023-04-28T01:58:40.052Z,21.10
2023-04-28T02:01:08.661Z,16.60
2023-04-28T02:03:37.264Z,14.40
2023-04-28T02:06:06.292Z,20.80
2023-04-28T02:08:34.462Z,17.40
2023-04-28T02:11:04.271Z,14.90
2023-04-28T02:13:32.343Z,13.30
2023-04-28T02:16:02.265Z,16.10
2023-04-28T02:18:30.739Z,15.00
2023-04-28T02:21:12.344Z,12.30
2023-04-28T02:23:41.137Z,16.30
2023-04-28T02:26:09.279Z,13.30
2023-04-28T02:28:37.458Z,16.10
2023-04-28T02:31:08.918Z,15.90
2023-04-28T02:33:38.131Z,13.20
2023-04-28T02:36:07.777Z,14.20
2023-04-28T02:38:36.084Z,12.70
2023-04-28T02:41:05.689Z,16.40
2023-04-28T02:43:34.308Z,17.10
2023-04-28T02:46:05.923Z,15.90
2023-04-28T02:48:37.695Z,17.30
2023-04-28T02:51:05.967Z,14.80
2023-04-28T02:53:34.330Z,16.60
2023-04-28T02:56:04.681Z,13.80
2023-04-28T02:58:33.557Z,15.40
2023-04-28T03:01:02.319Z,13.90
2023-04-28T03:03:30.754Z,13.50
2023-04-28T03:05:59.504Z,15.50
2023-04-28T03:08:27.869Z,16.70
2023-04-28T03:10:56.765Z,13.50
2023-04-28T03:13:25.662Z,17.40
2023-04-28T03:15:53.983Z,19.00
2023-04-28T03:18:22.812Z,22.30
2023-04-28T03:20:51.193Z,25.60
2023-04-28T03:23:19.258Z,33.30
2023-04-28T03:25:47.336Z,32.50
2023-04-28T03:28:16.427Z,30.10
2023-04-28T03:30:44.594Z,29.00
2023-04-28T03:33:12.867Z,31.60
2023-04-28T03:35:43.309Z,26.20
2023-04-28T03:38:11.780Z,27.70
2023-04-28T03:40:40.254Z,31.10
2023-04-28T03:43:14.477Z,28.30
2023-04-28T03:46:18.254Z,29.70
2023-04-28T03:48:46.851Z,28.30
2023-04-28T03:51:15.338Z,29.20
2023-04-28T03:53:43.814Z,24.50
2023-04-28T03:56:11.986Z,23.70
2023-04-28T03:58:41.286Z,22.40
2023-04-28T04:01:09.363Z,20.40
2023-04-28T04:03:37.803Z,20.70
2023-04-28T04:06:06.743Z,22.80
2023-04-28T04:08:35.013Z,25.00
2023-04-28T04:11:03.581Z,16.40
2023-04-28T04:13:33.413Z,19.80
2023-04-28T04:16:04.278Z,18.80
2023-04-28T04:18:32.705Z,15.40
2023-04-28T04:21:16.240Z,14.50
2023-04-28T04:23:44.555Z,19.40
2023-04-28T04:26:13.608Z,18.30
2023-04-28T04:28:41.779Z,19.80
2023-04-28T04:31:10.791Z,15.70
2023-04-28T04:33:38.953Z,21.90
2023-04-28T04:36:08.135Z,18.10
2023-04-28T04:38:36.322Z,33.00
2023-04-28T04:41:26.500Z,17.40
2023-04-28T04:44:04.824Z,18.20
2023-04-28T04:46:37.556Z,17.50
2023-04-28T04:49:05.864Z,18.00
2023-04-28T04:51:34.149Z,15.00
2023-04-28T04:54:02.310Z,15.60
2023-04-28T04:56:31.914Z,17.60
2023-04-28T04:59:00.498Z,15.40
2023-04-28T05:01:54.500Z,16.90
2023-04-28T05:04:23.149Z,18.40
2023-04-28T05:06:51.850Z,15.30
2023-04-28T05:09:20.427Z,17.30
2023-04-28T05:11:48.600Z,16.00
2023-04-28T05:14:18.106Z,17.90
2023-04-28T05:16:46.641Z,15.80
2023-04-28T05:19:18.032Z,16.60
2023-04-28T05:21:48.012Z,20.00
2023-04-28T05:24:16.734Z,17.70
2023-04-28T05:26:45.214Z,18.20
2023-04-28T05:29:13.916Z,17.70
2023-04-28T05:31:42.404Z,18.50
2023-04-28T05:34:11.239Z,19.10
2023-04-28T05:36:39.650Z,22.10
2023-04-28T05:39:09.758Z,18.80
2023-04-28T05:41:39.670Z,16.50
2023-04-28T05:44:08.060Z,17.80
2023-04-28T05:46:37.122Z,16.50
2023-04-28T05:49:05.826Z,17.40
2023-04-28T05:51:37.485Z,20.70
2023-04-28T05:54:05.653Z,16.60
2023-04-28T05:56:37.917Z,18.50
2023-04-28T05:59:06.099Z,16.40
2023-04-28T06:01:34.275Z,18.40
2023-04-28T06:04:02.698Z,18.50
2023-04-28T06:06:32.452Z,18.70
2023-04-28T06:09:00.832Z,16.80
2023-04-28T06:11:29.134Z,18.40
2023-04-28T06:13:57.274Z,21.30
2023-04-28T06:16:26.869Z,20.00
2023-04-28T06:18:55.061Z,18.60
2023-04-28T06:21:25.074Z,18.20
2023-04-28T06:23:53.298Z,19.00
2023-04-28T06:26:21.836Z,16.80
2023-04-28T06:28:51.154Z,17.40
2023-04-28T06:31:19.311Z,18.30
2023-04-28T06:33:47.576Z,19.00
2023-04-28T06:36:18.097Z,17.50
2023-04-28T06:38:46.783Z,15.30
2023-04-28T06:41:14.956Z,20.40
2023-04-28T06:43:48.661Z,17.50
2023-04-28T06:46:22.714Z,18.10
2023-04-28T06:48:51.047Z,18.20
2023-04-28T06:51:19.320Z,18.10
2023-04-28T06:53:47.590Z,18.70
2023-04-28T06:56:15.763Z,17.20
2023-04-28T06:58:43.939Z,16.80
2023-04-28T07:01:12.004Z,18.40
2023-04-28T07:03:40.451Z,19.70
2023-04-28T07:06:09.174Z,16.70
2023-04-28T07:08:37.340Z,16.80
2023-04-28T07:11:06.513Z,21.80
2023-04-28T07:13:34.715Z,14.80
2023-04-28T07:16:04.969Z,15.50
2023-04-28T07:18:33.105Z,15.60
2023-04-28T07:21:02.311Z,16.10
2023-04-28T07:23:32.475Z,17.70
2023-04-28T07:26:00.589Z,16.90
2023-04-28T07:28:28.768Z,14.60
2023-04-28T07:30:57.766Z,69.40
2023-04-28T07:33:25.934Z,19.10
2023-04-28T07:35:54.311Z,46.60
2023-04-28T07:38:22.580Z,34.70
2023-04-28T07:43:23.743Z,18.80
2023-04-28T07:45:51.925Z,16.70
2023-04-28T07:48:20.347Z,14.50
2023-04-28T07:50:48.558Z,19.60
2023-04-28T07:53:17.047Z,17.60
2023-04-28T07:55:46.141Z,18.90
2023-04-28T07:58:14.307Z,47.20
2023-04-28T08:00:42.574Z,18.70
2023-04-28T08:03:11.273Z,14.30
2023-04-28T08:05:40.140Z,15.20
2023-04-28T08:08:08.431Z,15.20
2023-04-28T08:10:36.596Z,13.60
2023-04-28T08:13:04.667Z,12.70
2023-04-28T08:15:32.756Z,31.70
2023-04-28T08:18:00.939Z,25.60
2023-04-28T08:20:30.413Z,13.00
2023-04-28T08:22:59.401Z,14.50
2023-04-28T08:25:27.783Z,12.30
2023-04-28T08:27:57.591Z,14.00
2023-04-28T08:30:25.864Z,10.00
2023-04-28T08:32:54.317Z,12.30
2023-04-28T08:35:22.826Z,14.90
2023-04-28T08:37:53.045Z,10.20
2023-04-28T08:40:21.318Z,12.00
2023-04-28T08:42:50.324Z,11.30
2023-04-28T08:45:18.485Z,13.50
2023-04-28T08:47:49.921Z,15.20
2023-04-28T08:50:23.117Z,10.70
2023-04-28T08:52:52.804Z,11.60
2023-04-28T08:55:21.511Z,10.90
2023-04-28T08:57:51.960Z,10.10
2023-04-28T09:00:20.125Z,13.00
2023-04-28T09:02:48.405Z,12.60
2023-04-28T09:05:16.986Z,14.00
2023-04-28T09:07:49.085Z,14.60
2023-04-28T09:10:24.685Z,10.70
2023-04-28T09:12:54.797Z,11.80
2023-04-28T09:15:41.576Z,9.70
2023-04-28T09:18:14.864Z,9.90
2023-04-28T09:20:44.810Z,13.90
2023-04-28T09:23:19.987Z,11.60
2023-04-28T09:26:00.130Z,12.40
2023-04-28T09:28:28.792Z,15.90
2023-04-28T09:30:57.337Z,10.90
2023-04-28T09:33:25.901Z,9.70
2023-04-28T09:35:54.705Z,10.60
2023-04-28T09:38:23.629Z,17.90
2023-04-28T09:41:03.053Z,11.50
2023-04-28T09:43:33.485Z,11.60
2023-04-28T09:46:04.123Z,9.90
2023-04-28T09:48:36.792Z,9.60
2023-04-28T09:51:06.822Z,9.40
2023-04-28T09:53:36.149Z,10.90
2023-04-28T09:56:05.530Z,9.50
2023-04-28T09:58:35.469Z,11.10
2023-04-28T10:01:04.796Z,12.30
2023-04-28T10:03:33.116Z,12.60
2023-04-28T10:06:02.420Z,12.70
2023-04-28T10:08:30.566Z,12.30
2023-04-28T10:10:59.047Z,10.20
2023-04-28T10:13:27.328Z,7.50
2023-04-28T10:15:55.930Z,10.90
2023-04-28T10:18:25.229Z,15.40
2023-04-28T10:20:59.938Z,10.40
2023-04-28T10:23:38.548Z,10.70
2023-04-28T10:26:11.845Z,9.50
2023-04-28T10:28:50.872Z,7.50
2023-04-28T10:31:23.530Z,8.00
2023-04-28T10:33:51.725Z,8.50
2023-04-28T10:36:48.876Z,8.00
2023-04-28T10:39:17.172Z,9.80
2023-04-28T10:41:49.310Z,7.70
2023-04-28T10:44:33.359Z,12.30
2023-04-28T10:47:11.669Z,8.50
2023-04-28T10:50:12.429Z,7.80
2023-04-28T10:52:48.779Z,10.50
2023-04-28T10:55:36.579Z,7.30
2023-04-28T10:58:17.566Z,8.00
2023-04-28T11:00:48.814Z,8.20
2023-04-28T11:03:39.315Z,8.10
2023-04-28T11:06:21.310Z,9.10
2023-04-28T11:08:49.585Z,6.80
2023-04-28T11:11:22.361Z,7.50
2023-04-28T11:13:51.360Z,7.30
2023-04-28T11:16:21.717Z,8.60
2023-04-28T11:18:55.711Z,8.60
2023-04-28T11:21:25.390Z,7.20
2023-04-28T11:23:53.465Z,6.90
2023-04-28T11:26:21.628Z,8.50
2023-04-28T11:28:51.477Z,6.90
2023-04-28T11:31:22.556Z,6.00
2023-04-28T11:34:17.582Z,6.70
2023-04-28T11:36:45.659Z,6.90
2023-04-28T11:39:14.336Z,5.00
2023-04-28T11:41:46.092Z,5.30
2023-04-28T11:44:15.595Z,5.60
2023-04-28T11:46:56.442Z,4.90
2023-04-28T11:49:25.479Z,9.10
2023-04-28T11:51:53.833Z,5.90
2023-04-28T11:54:23.577Z,6.50
2023-04-28T11:56:53.326Z,7.00
2023-04-28T11:59:35.621Z,6.70
2023-04-28T12:02:07.383Z,4.10
2023-04-28T12:04:38.106Z,5.30
2023-04-28T12:07:15.946Z,4.90
2023-04-28T12:09:46.399Z,5.50
2023-04-28T12:12:39.989Z,4.80
2023-04-28T12:15:09.760Z,5.90
2023-04-28T12:17:39.501Z,6.70
2023-04-28T12:20:12.971Z,5.60
2023-04-28T12:22:46.971Z,7.00
2023-04-28T12:25:22.368Z,6.10
2023-04-28T12:28:00.205Z,6.00
2023-04-28T12:30:29.417Z,6.00
2023-04-28T12:32:58.206Z,4.70
2023-04-28T12:35:28.205Z,4.30
2023-04-28T12:37:58.688Z,3.90
2023-04-28T12:40:27.369Z,6.70
2023-04-28T12:42:55.540Z,5.40
2023-04-28T12:45:23.868Z,6.60
2023-04-28T12:47:52.189Z,7.90
2023-04-28T12:50:20.517Z,5.80
2023-04-28T12:52:48.692Z,4.90
2023-04-28T12:55:17.068Z,5.90
2023-04-28T12:57:45.236Z,7.50
2023-04-28T13:00:16.488Z,3.50
2023-04-28T13:02:46.053Z,5.90
2023-04-28T13:05:14.768Z,6.20
2023-04-28T13:07:43.966Z,4.90
2023-04-28T13:10:13.165Z,3.70
2023-04-28T13:12:41.849Z,5.30
2023-04-28T13:15:11.147Z,7.00
2023-04-28T13:17:39.988Z,7.90
2023-04-28T13:20:09.116Z,5.60
2023-04-28T13:22:37.412Z,2.80
2023-04-28T13:25:06.296Z,6.00
2023-04-28T13:27:34.366Z,6.40
2023-04-28T13:30:04.215Z,4.60
2023-04-28T13:32:32.588Z,3.50
2023-04-28T13:35:00.825Z,6.80
2023-04-28T13:37:28.903Z,5.00
2023-04-28T13:39:58.298Z,5.10
2023-04-28T13:42:26.476Z,4.90
2023-04-28T13:44:54.949Z,3.10
2023-04-28T13:47:23.015Z,6.00
2023-04-28T13:49:51.813Z,5.10
2023-04-28T13:52:20.692Z,3.20
2023-04-28T13:54:49.031Z,6.30
2023-04-28T13:57:17.545Z,5.00
2023-04-28T13:59:46.024Z,3.10
2023-04-28T14:02:14.122Z,5.20
2023-04-28T14:04:48.881Z,5.90
2023-04-28T14:07:17.610Z,3.40
2023-04-28T14:09:46.314Z,4.10
2023-04-28T14:12:15.756Z,6.00
2023-04-28T14:14:44.215Z,4.70
2023-04-28T14:17:12.757Z,3.90
2023-04-28T14:19:40.845Z,4.20
2023-04-28T14:22:09.309Z,5.10
2023-04-28T14:24:37.683Z,4.30
2023-04-28T14:27:05.849Z,5.20
2023-04-28T14:29:33.920Z,4.30
2023-04-28T14:32:02.405Z,4.70
2023-04-28T14:34:30.572Z,5.80
2023-04-28T14:36:58.846Z,7.10
2023-04-28T14:39:27.022Z,5.60
2023-04-28T14:41:55.396Z,3.70
2023-04-28T14:44:23.463Z,4.80
2023-04-28T14:46:51.946Z,4.30
2023-04-28T14:49:20.029Z,3.90
2023-04-28T14:51:49.751Z,3.30
2023-04-28T14:54:17.816Z,3.60
2023-04-28T14:56:45.966Z,2.90
2023-04-28T14:59:14.446Z,3.70
2023-04-28T15:01:43.867Z,5.00
2023-04-28T15:04:12.633Z,3.50
2023-04-28T15:06:40.838Z,5.70
2023-04-28T15:09:08.979Z,3.90
2023-04-28T15:11:37.154Z,4.40
2023-04-28T15:14:05.429Z,4.00
2023-04-28T15:16:33.547Z,5.20
2023-04-28T15:19:01.914Z,2.90
2023-04-28T15:21:30.044Z,3.60
2023-04-28T15:23:59.852Z,4.80
2023-04-28T15:26:30.002Z,6.30
2023-04-28T15:28:59.380Z,4.40
2023-04-28T15:31:28.446Z,6.00
2023-04-28T15:33:57.257Z,4.30
2023-04-28T15:36:25.426Z,5.50
2023-04-28T15:38:53.600Z,4.60
2023-04-28T15:41:22.076Z,5.70
2023-04-28T15:43:50.870Z,4.60
2023-04-28T15:46:19.089Z,6.00
2023-04-28T15:48:47.424Z,5.50
2023-04-28T15:51:15.489Z,6.90
2023-04-28T15:53:43.553Z,3.60
2023-04-28T15:56:11.734Z,5.30
2023-04-28T15:58:39.998Z,5.80
2023-04-28T16:01:08.931Z,4.30
2023-04-28T16:03:37.375Z,6.30
2023-04-28T16:06:06.874Z,4.70
2023-04-28T16:08:38.018Z,3.40
2023-04-28T16:11:06.419Z,4.00
2023-04-28T16:13:37.237Z,4.00
2023-04-28T16:16:07.267Z,5.90
2023-04-28T16:18:36.748Z,7.40
2023-04-28T16:21:05.140Z,8.70
2023-04-28T16:23:33.614Z,12.50
2023-04-28T16:26:01.788Z,18.20
2023-04-28T16:28:30.163Z,14.80
2023-04-28T16:30:58.333Z,10.70
2023-04-28T16:33:26.399Z,7.80
2023-04-28T16:35:57.292Z,23.60
2023-04-28T16:38:25.403Z,12.40
2023-04-28T16:40:53.785Z,10.10
2023-04-28T16:43:22.258Z,20.40
2023-04-28T16:45:50.359Z,21.70
2023-04-28T16:48:19.218Z,13.10
2023-04-28T16:50:47.399Z,13.20
2023-04-28T16:53:15.565Z,7.60
2023-04-28T16:55:43.641Z,8.40
2023-04-28T16:58:11.703Z,9.20
2023-04-28T17:00:39.974Z,8.10
2023-04-28T17:03:08.319Z,5.40
2023-04-28T17:05:36.941Z,5.60
2023-04-28T17:08:05.207Z,6.70
2023-04-28T17:10:33.392Z,4.00
2023-04-28T17:13:01.459Z,6.10
2023-04-28T17:15:29.657Z,7.40
2023-04-28T17:17:58.168Z,8.40
2023-04-28T17:20:26.487Z,18.70
2023-04-28T17:22:54.970Z,18.50
2023-04-28T17:25:24.171Z,6.60
2023-04-28T17:27:52.330Z,8.30
2023-04-28T17:30:20.605Z,4.70
2023-04-28T17:32:48.907Z,5.20
2023-04-28T17:35:17.273Z,4.00
2023-04-28T17:37:45.633Z,4.80
2023-04-28T17:40:14.123Z,7.30
2023-04-28T17:42:43.398Z,6.90
2023-04-28T17:45:12.095Z,5.30
2023-04-28T17:47:40.194Z,6.70
2023-04-28T17:50:09.135Z,6.20
2023-04-28T17:52:37.635Z,8.70
2023-04-28T17:55:06.630Z,7.60
2023-04-28T17:57:35.011Z,4.60
2023-04-28T18:00:03.492Z,7.30
2023-04-28T18:02:40.075Z,6.80
2023-04-28T18:05:09.207Z,30.50
2023-04-28T18:07:38.034Z,21.10
2023-04-28T18:10:06.509Z,8.80
2023-04-28T18:12:34.691Z,11.60
2023-04-28T18:15:03.161Z,7.90
2023-04-28T18:17:33.233Z,7.80
2023-04-28T18:22:29.629Z,11.20
2023-04-28T18:24:58.732Z,6.50
2023-04-28T18:27:27.100Z,7.80
2023-04-28T18:29:56.295Z,6.90
2023-04-28T18:32:24.399Z,7.70
2023-04-28T18:34:52.674Z,7.00
2023-04-28T18:37:20.813Z,8.90
2023-04-28T18:39:48.879Z,9.10
2023-04-28T18:42:16.950Z,11.40
2023-04-28T18:44:45.022Z,5.80
2023-04-28T18:47:13.197Z,9.10
2023-04-28T18:49:41.432Z,8.60
2023-04-28T18:52:09.642Z,7.60
2023-04-28T18:54:38.017Z,7.10
2023-04-28T18:57:06.913Z,6.10
2023-04-28T18:59:34.981Z,6.90
2023-04-28T19:02:04.076Z,6.10
2023-04-28T19:04:32.413Z,7.60
2023-04-28T19:07:00.823Z,8.00
2023-04-28T19:09:28.892Z,7.80
2023-04-28T19:11:56.966Z,7.30
2023-04-28T19:14:25.133Z,8.40
2023-04-28T19:16:53.553Z,7.80
2023-04-28T19:19:21.903Z,10.00
2023-04-28T19:21:51.094Z,11.70
2023-04-28T19:24:19.363Z,9.00
2023-04-28T19:26:47.533Z,6.10
2023-04-28T19:29:17.392Z,6.60
2023-04-28T19:31:45.933Z,6.10
2023-04-28T19:34:14.104Z,8.80
2023-04-28T19:36:42.174Z,8.40
2023-04-28T19:39:10.342Z,6.70
2023-04-28T19:41:38.729Z,10.30
2023-04-28T19:44:06.787Z,6.00
2023-04-28T19:46:35.961Z,7.90
2023-04-28T19:49:04.465Z,7.70
2023-04-28T19:51:33.251Z,6.20
2023-04-28T19:54:01.849Z,5.90
2023-04-28T19:56:30.940Z,6.50
2023-04-28T19:58:59.405Z,8.90
2023-04-28T20:01:27.638Z,6.20
2023-04-28T20:03:55.951Z,6.40
2023-04-28T20:06:24.332Z,8.40
2023-04-28T20:08:53.030Z,9.10
2023-04-28T20:11:21.186Z,9.90
2023-04-28T20:13:49.567Z,12.00
2023-04-28T20:16:20.589Z,9.10
2023-04-28T20:18:48.897Z,10.70
2023-04-28T20:21:17.779Z,9.80
2023-04-28T20:23:45.943Z,12.80
2023-04-28T20:26:15.653Z,12.40
2023-04-28T20:28:46.694Z,12.90
2023-04-28T20:31:15.414Z,13.10
2023-04-28T20:33:43.546Z,8.40
2023-04-28T20:36:13.079Z,15.10
2023-04-28T20:38:43.168Z,13.50
2023-04-28T20:41:11.360Z,9.10
2023-04-28T20:43:39.512Z,11.50
2023-04-28T20:46:11.199Z,11.00
2023-04-28T20:48:40.262Z,8.40
2023-04-28T20:51:08.429Z,7.40
2023-04-28T20:53:38.423Z,15.40
2023-04-28T20:56:06.826Z,14.30
2023-04-28T20:58:35.611Z,11.70
2023-04-28T21:01:03.833Z,9.80
2023-04-28T21:03:32.018Z,10.00
2023-04-28T21:06:00.539Z,10.40
2023-04-28T21:08:30.348Z,11.20
2023-04-28T21:10:58.522Z,11.30
2023-04-28T21:13:26.615Z,10.20
2023-04-28T21:15:54.868Z,12.10
2023-04-28T21:18:23.038Z,9.40
2023-04-28T21:20:51.414Z,11.10
2023-04-28T21:23:19.898Z,12.20
2023-04-28T21:25:48.064Z,13.10
2023-04-28T21:28:16.546Z,10.30
2023-04-28T21:30:44.724Z,12.60
2023-04-28T21:33:12.993Z,14.60
2023-04-28T21:35:41.268Z,10.70
2023-04-28T21:38:11.094Z,11.20
2023-04-28T21:40:39.353Z,11.50
2023-04-28T21:43:08.445Z,8.90
2023-04-28T21:45:36.640Z,10.20
2023-04-28T21:48:06.490Z,10.40
2023-04-28T21:50:36.454Z,10.30
2023-04-28T21:53:04.514Z,8.80
2023-04-28T21:55:32.724Z,10.70
2023-04-28T21:58:00.960Z,11.50
2023-04-28T22:00:29.240Z,12.90
2023-04-28T22:02:57.810Z,11.10
2023-04-28T22:05:26.195Z,11.80
2023-04-28T22:07:54.390Z,11.30
2023-04-28T22:10:22.953Z,19.60
2023-04-28T22:12:51.119Z,13.30
2023-04-28T22:15:19.433Z,13.00
2023-04-28T22:17:47.928Z,9.70
2023-04-28T22:20:16.151Z,13.90
2023-04-28T22:22:44.222Z,10.20
2023-04-28T22:25:12.513Z,10.70
2023-04-28T22:27:40.772Z,11.40
2023-04-28T22:30:10.078Z,13.30
2023-04-28T22:32:38.283Z,12.60
2023-04-28T22:35:07.010Z,9.90
2023-04-28T22:37:36.634Z,12.20
2023-04-28T22:40:07.959Z,13.10
2023-04-28T22:42:37.489Z,9.50
2023-04-28T22:45:06.936Z,12.10
2023-04-28T22:47:35.226Z,16.40
2023-04-28T22:50:07.017Z,14.80
2023-04-28T22:52:35.296Z,12.60
2023-04-28T22:55:03.668Z,12.70
2023-04-28T22:57:31.849Z,12.70
2023-04-28T23:00:00.226Z,10.80
2023-04-28T23:02:28.946Z,12.20
2023-04-28T23:04:57.592Z,14.30
2023-04-28T23:07:26.072Z,13.60
2023-04-28T23:09:54.251Z,11.90
2023-04-28T23:12:22.622Z,11.50
2023-04-28T23:14:50.689Z,11.30
2023-04-28T23:17:19.021Z,12.40
2023-04-28T23:19:47.131Z,13.50
2023-04-28T23:22:15.210Z,12.60
2023-04-28T23:24:43.480Z,15.10
2023-04-28T23:27:12.262Z,14.10
2023-04-28T23:29:40.437Z,13.70
2023-04-28T23:32:08.768Z,12.20
2023-04-28T23:34:38.418Z,12.10
2023-04-28T23:37:06.793Z,12.70
2023-04-28T23:39:34.863Z,11.70
2023-04-28T23:42:03.035Z,13.10
2023-04-28T23:44:31.210Z,11.90
2023-04-28T23:46:59.493Z,11.60
2023-04-28T23:49:27.551Z,10.00
2023-04-28T23:51:55.931Z,9.90
2023-04-28T23:54:23.999Z,11.50
2023-04-28T23:56:52.184Z,10.10
2023-04-28T23:59:20.368Z,8.80
